Time;durP1;ratioP1;P1;durP2;ratioP2;P2;SDS_P1;SDS_P2;PMS_P1;PMS_P2;Temp;Humidity;BMP_temperature;BMP_pressure;BME280_temperature;BME280_humidity;BME280_pressure;Samples;Min_cycle;Max_cycle;Signal;HPM_P1;HPM_P2
2022/05/01 00:01:23;;;;;;;11.75;9.73;;;;;;;;;;6230722;22;20020;-94
2022/05/01 00:03:51;;;;;;;14.27;9.63;;;;;;;;;;6230963;22;20051;-96
2022/05/01 00:06:19;;;;;;;14.13;10.85;;;;;;;;;;6229768;22;20453;-94
2022/05/01 00:08:45;;;;;;;11.75;9.63;;;;;;;;;;6255371;22;20012;-93
2022/05/01 00:11:14;;;;;;;14.70;9.68;;;;;;;;;;6230217;22;20307;-93
2022/05/01 00:13:41;;;;;;;16.55;10.40;;;;;;;;;;6228066;22;20012;-94
2022/05/01 00:16:10;;;;;;;13.20;10.32;;;;;;;;;;6230213;22;20099;-93
2022/05/01 00:18:36;;;;;;;15.93;10.63;;;;;;;;;;6230437;22;20099;-92
2022/05/01 00:21:08;;;;;;;12.70;9.70;;;;;;;;;;6232363;22;20020;-94
2022/05/01 00:23:35;;;;;;;9.73;7.78;;;;;;;;;;6231400;22;20023;-94
2022/05/01 00:26:03;;;;;;;10.02;7.07;;;;;;;;;;6230803;22;20022;-95
2022/05/01 00:28:31;;;;;;;7.63;6.20;;;;;;;;;;6233206;22;20094;-95
2022/05/01 00:30:57;;;;;;;10.60;8.52;;;;;;;;;;6232241;22;20020;-96
2022/05/01 00:36:27;;;;;;;10.98;8.35;;;;;;;;;;6257282;22;20019;-96
2022/05/01 00:39:01;;;;;;;;;;;4.20;99.90;;;;;;6231583;22;20333;-95
2022/05/01 00:41:31;;;;;;;8.40;6.65;;;;;;;;;;6231999;22;19939;-95
2022/05/01 00:44:01;;;;;;;9.32;7.88;;;;;;;;;;6233265;22;20078;-95
2022/05/01 00:46:30;;;;;;;13.43;8.77;;;;;;;;;;6231795;22;20453;-95
2022/05/01 00:49:09;;;;;;;15.40;9.25;;;;;;;;;;6232435;22;20031;-95
2022/05/01 00:51:49;;;;;;;12.10;8.10;;;;;;;;;;6233108;22;20022;-94
2022/05/01 00:54:19;;;;;;;8.85;7.15;;;;;;;;;;6232792;22;20099;-95
2022/05/01 00:57:13;;;;;;;10.27;8.43;;;;;;;;;;6262496;22;20028;-94
2022/05/01 00:59:51;;;;;;;12.43;8.60;;;;;;;;;;6234124;22;20016;-95
2022/05/01 01:02:36;;;;;;;11.05;8.13;;;;;;;;;;6234877;22;20149;-95
2022/05/01 01:05:22;;;;;;;;;;;;;;;;;;;;;
2022/05/01 01:07:56;;;;;;;54.38;13.63;;;;;;;;;;6259495;22;20015;-95
2022/05/01 01:10:25;;;;;;;14.80;9.90;;;;;;;;;;6230847;22;20019;-95
2022/05/01 01:13:07;;;;;;;13.65;8.55;;;;;;;;;;6232858;22;20027;-95
2022/05/01 01:15:36;;;;;;;12.75;7.25;;;;;;;;;;6230019;22;20098;-94
2022/05/01 01:21:03;;;;;;;10.52;7.30;;;;;;;;;;6255584;22;20464;-94
2022/05/01 01:23:33;;;;;;;8.13;5.88;;;;;;;;;;6193683;23;20155;-94
2022/05/01 01:26:04;;;;;;;8.02;6.22;;;;;;;;;;6168522;23;20082;-94
2022/05/01 01:28:35;;;;;;;7.20;5.30;;;;;;;;;;6189985;23;20017;-94
2022/05/01 01:33:58;;;;;;;8.65;6.80;;;;;;;;;;6195033;23;20047;-93
2022/05/01 01:36:28;;;;;;;9.02;5.70;;;;;;;;;;6169565;23;20020;-93
2022/05/01 01:38:58;;;;;;;7.47;5.65;;;;;;;;;;6195088;23;20020;-93
2022/05/01 01:41:31;;;;;;;9.75;6.80;;;;;;;;;;6168165;23;20027;-92
2022/05/01 01:43:57;;;;;;;8.67;6.67;;;;;;;;;;6169448;23;20040;-93
2022/05/01 01:46:24;;;;;;;16.05;5.82;;;;;;;;;;6167572;23;20020;-93
2022/05/01 01:48:56;;;;;;;6.25;5.07;;;;;;;;;;6219485;22;20103;-94
2022/05/01 01:51:22;;;;;;;6.53;5.55;;;;;;;;;;6230776;22;20012;-95
2022/05/01 01:53:49;;;;;;;6.40;5.25;;;;;;;;;;6230421;22;20122;-94
2022/05/01 01:56:25;;;;;;;7.25;5.40;;;;;;;;;;6228929;22;20015;-95
2022/05/01 01:58:51;;;;;;;21.70;6.93;;;;;;;;;;6230555;22;20016;-94
2022/05/01 02:01:19;;;;;;;7.18;6.18;;;;;;;;;;6230835;22;20020;-95
2022/05/01 02:03:46;;;;;;;6.25;5.50;;;;;;;;;;6230916;22;20033;-94
2022/05/01 02:06:14;;;;;;;7.97;6.30;;;;;;;;;;6229831;22;20012;-94
2022/05/01 02:08:42;;;;;;;8.25;7.25;;;;;;;;;;6230779;22;20124;-93
2022/05/01 02:11:10;;;;;;;19.40;8.55;;;;;;;;;;6228918;22;20318;-94
2022/05/01 02:13:39;;;;;;;11.10;8.05;;;;;;;;;;6230077;22;20020;-94
2022/05/01 02:16:08;;;;;;;10.15;7.80;;;;;;;;;;6229193;22;20015;-94
2022/05/01 02:21:36;;;;;;;14.98;7.53;;;;;;;;;;6135745;23;20196;-94
2022/05/01 02:24:13;;;;;;;9.48;7.97;;;;;;;;;;6112072;23;20021;-94
2022/05/01 02:26:39;;;;;;;8.13;7.32;;;;;;;;;;6110374;23;20027;-95
2022/05/01 02:29:19;;;;;;;9.52;7.28;;;;;;;;;;6109745;23;20522;-95
2022/05/01 02:31:45;;;;;;;10.40;7.65;;;;;;;;;;6109214;23;20022;-94
2022/05/01 02:34:14;;;;;;;8.35;7.40;;;;;;;;;;6109934;23;20017;-94
2022/05/01 02:36:40;;;;;;;10.63;7.15;;;;;;;;;;6110557;23;20017;-95
2022/05/01 02:39:06;;;;;;;8.25;7.18;;;;;;;;;;6109772;23;20488;-94
2022/05/01 02:41:35;;;;;;;7.97;6.35;;;;;;;;;;6108624;23;20116;-93
2022/05/01 02:44:04;;;;;;;9.63;7.07;;;;;;;;;;6109271;23;20021;-94
2022/05/01 02:46:32;;;;;;;6.97;6.32;;;;;;;;;;6109604;23;20017;-94
2022/05/01 02:49:07;;;;;;;9.77;7.68;;;;;;;;;;6110670;23;20482;-94
2022/05/01 02:51:38;;;;;;;8.93;8.07;;;;;;;;;;6110501;23;20021;-95
2022/05/01 02:54:11;;;;;;;11.85;8.73;;;;;;;;;;6110745;23;20100;-93
2022/05/01 02:56:37;;;;;;;13.00;10.20;;;;;;;;;;6114913;23;20466;-94
2022/05/01 02:59:10;;;;;;;10.40;8.43;;;;;;;;;;6224564;23;20047;-94
2022/05/01 03:01:40;;;;;;;9.63;8.48;;;;;;;;;;6223752;23;20016;-95
2022/05/01 03:04:06;;;;;;;8.70;7.80;;;;;;;;;;6226180;23;20091;-95
2022/05/01 03:06:34;;;;;;;8.43;7.47;;;;;;;;;;6223968;23;20062;-94
2022/05/01 03:09:12;;;;;;;10.18;7.20;;;;;;;;;;6225173;23;20090;-93
2022/05/01 03:11:38;;;;;;;7.53;6.65;;;;;;;;;;6224933;23;20020;-93
2022/05/01 03:14:04;;;;;;;8.88;7.35;;;;;;;;;;6225422;23;20027;-94
2022/05/01 03:16:34;;;;;;;7.95;7.15;;;;;;;;;;6222894;23;20024;-93
2022/05/01 03:24:34;;;;;;;6.13;5.53;;;;;;;;;;6223159;23;20024;-94
2022/05/01 03:27:00;;;;;;;7.05;6.35;;;;;;;;;;6223772;23;20055;-92
2022/05/01 03:29:30;;;;;;;6.43;5.78;;;;;;;;;;6223893;23;20016;-93
2022/05/01 03:31:56;;;;;;;8.15;6.95;;;;;;;;;;6225132;23;20035;-93
2022/05/01 03:34:31;;;;;;;9.38;7.57;;;;;;;;;;6223613;23;20016;-93
2022/05/01 03:36:57;;;;;;;7.75;6.95;;;;;;;;;;6223804;23;20438;-93
2022/05/01 03:39:26;;;;;;;7.22;6.40;;;;;;;;;;6225503;23;20595;-93
2022/05/01 03:41:52;;;;;;;7.25;6.53;;;;;;;;;;6223356;23;20012;-93
2022/05/01 03:44:18;;;;;;;7.63;6.82;;;;;;;;;;6223555;23;20024;-93
2022/05/01 03:46:49;;;;;;;7.93;7.10;;;;;;;;;;6224888;23;20024;-93
2022/05/01 03:49:21;;;;;;;11.80;8.75;;;;;;;;;;6249105;23;20039;-93
2022/05/01 03:51:50;;;;;;;11.73;8.65;;;;;;;;;;6247909;23;20023;-93
2022/05/01 03:54:18;;;;;;;8.02;6.90;;;;;;;;;;6248946;23;20516;-91
2022/05/01 03:56:47;;;;;;;11.45;9.55;;;;;;;;;;6247767;23;20016;-92
2022/05/01 03:59:13;;;;;;;15.23;10.68;;;;;;;;;;6247918;23;20354;-92
2022/05/01 04:01:39;;;;;;;11.63;9.07;;;;;;;;;;6224703;23;20446;-92
2022/05/01 04:04:06;;;;;;;10.60;8.52;;;;;;;;;;6249168;23;20102;-92
2022/05/01 04:06:32;;;;;;;12.13;9.23;;;;;;;;;;6249457;23;20312;-91
2022/05/01 04:09:00;;;;;;;10.73;8.95;;;;;;;;;;6249016;23;20020;-93
2022/05/01 04:11:26;;;;;;;13.00;9.73;;;;;;;;;;6249686;23;20012;-92
2022/05/01 04:13:55;;;;;;;13.68;9.25;;;;;;;;;;6247444;23;20095;-92
2022/05/01 04:16:22;;;;;;;12.27;9.05;;;;;;;;;;6249077;23;20345;-92
2022/05/01 04:18:48;;;;;;;11.73;9.48;;;;;;;;;;6250772;23;20055;-92
2022/05/01 04:21:14;;;;;;;11.80;9.13;;;;;;;;;;6251377;23;20016;-92
2022/05/01 04:23:40;;;;;;;12.07;9.38;;;;;;;;;;6250705;23;20012;-91
2022/05/01 04:26:07;;;;;;;11.68;9.50;;;;;;;;;;6251663;23;20103;-93
2022/05/01 04:28:33;;;;;;;12.93;10.70;;;;;;;;;;6252302;23;20012;-93
2022/05/01 04:30:59;;;;;;;11.73;10.30;;;;;;;;;;6224493;23;20020;-93
2022/05/01 04:33:25;;;;;;;13.35;9.05;;;;;;;;;;6226321;23;20037;-92
2022/05/01 04:35:54;;;;;;;10.25;9.05;;;;;;;;;;6249798;23;20027;-92
2022/05/01 04:38:21;;;;;;;11.75;9.38;;;;;;;;;;6252370;23;20012;-93
2022/05/01 04:40:51;;;;;;;13.20;8.90;;;;;;;;;;6250757;23;20039;-92
2022/05/01 04:43:18;;;;;;;13.18;9.43;;;;;;;;;;6252838;23;20074;-92
2022/05/01 04:45:45;;;;;;;13.73;11.00;;;;;;;;;;6251383;22;20041;-93
2022/05/01 04:48:12;;;;;;;12.55;9.77;;;;;;;;;;6226090;23;20480;-91
2022/05/01 04:50:38;;;;;;;11.35;8.80;;;;;;;;;;6249924;23;20016;-92
2022/05/01 04:53:11;;;;;;;10.52;8.80;;;;;;;;;;6250696;23;20023;-92
2022/05/01 04:55:40;;;;;;;12.52;9.30;;;;;;;;;;6251296;23;20016;-93
2022/05/01 04:58:07;;;;;;;11.30;9.50;;;;;;;;;;6251349;23;20016;-93
2022/05/01 05:00:33;;;;;;;10.32;8.68;;;;;;;;;;6250069;23;20020;-91
2022/05/01 05:03:00;;;;;;;10.70;9.20;;;;;;;;;;6250122;23;20012;-91
2022/05/01 05:05:27;;;;;;;12.43;9.98;;;;;;;;;;6250756;23;20016;-91
2022/05/01 05:07:53;;;;;;;11.40;9.13;;;;;;;;;;6248978;23;20070;-91
2022/05/01 05:10:19;;;;;;;11.68;9.35;;;;;;;;;;6249390;23;20020;-91
2022/05/01 05:12:46;;;;;;;15.15;11.35;;;;;;;;;;6248982;23;20532;-92
2022/05/01 05:15:15;;;;;;;13.70;11.57;;;;;;;;;;6223234;23;20086;-92
2022/05/01 05:17:41;;;;;;;18.73;12.00;;;;;;;;;;6225008;23;20012;-91
2022/05/01 05:20:09;;;;;;;21.48;11.50;;;;;;;;;;6223838;23;20026;-92
2022/05/01 05:22:35;;;;;;;16.02;12.10;;;;;;;;;;6224567;23;20066;-92
2022/05/01 05:25:01;;;;;;;14.80;11.13;;;;;;;;;;6225917;23;20020;-93
2022/05/01 05:27:28;;;;;;;18.20;11.15;;;;;;;;;;6225226;23;20019;-93
2022/05/01 05:29:54;;;;;;;13.40;9.90;;;;;;;;;;6223771;23;20020;-93
2022/05/01 05:32:21;;;;;;;13.15;10.32;;;;;;;;;;6249680;23;20098;-93
2022/05/01 05:34:53;;;;;;;12.48;9.45;;;;;;;;;;6226534;23;20074;-93
2022/05/01 05:37:20;;;;;;;11.80;9.55;;;;;;;;;;6249403;23;20035;-94
2022/05/01 05:39:46;;;;;;;11.18;8.73;;;;;;;;;;6250095;23;20464;-93
2022/05/01 05:42:27;;;;;;;11.10;8.98;;;;;;;;;;6249200;23;20012;-94
2022/05/01 05:45:23;;;;;;;12.07;9.35;;;;;;;;;;6223271;22;20020;-94
2022/05/01 05:48:03;;;;;;;9.93;8.73;;;;;;;;;;6229407;23;20536;-93
2022/05/01 05:50:33;;;;;;;9.90;8.68;;;;;;;;;;6227971;23;20016;-93
2022/05/01 05:53:19;;;;;;;10.65;9.05;;;;;;;;;;6226681;23;20460;-95
2022/05/01 05:55:50;;;;;;;12.93;9.60;;;;;;;;;;6229455;23;20016;-95
2022/05/01 05:58:20;;;;;;;11.68;9.82;;;;;;;;;;6234594;23;20012;-95
2022/05/01 06:00:52;;;;;;;10.15;9.07;;;;;;;;;;6209169;23;20020;-94
2022/05/01 07:46:25;;;;;;;;;;;;;;;;;;;;;
2022/05/01 07:50:21;;;;;;;;;;;;;;;;;;;;;
2022/05/01 07:57:08;;;;;;;10.73;6.43;;;;;;;;;;6072196;23;20031;-94
2022/05/01 07:59:54;;;;;;;8.27;7.07;;;;;;;;;;6072759;23;20074;-95
2022/05/01 08:02:23;;;;;;;8.90;5.60;;;;;;;;;;6022046;23;20019;-93
2022/05/01 08:05:03;;;;;;;7.05;5.68;;;;;;;;;;6022167;23;20023;-94
2022/05/01 08:07:32;;;;;;;7.80;6.35;;;;;;;;;;6048921;23;20019;-94
2022/05/01 08:10:28;;;;;;;6.78;6.07;;;;;;;;;;6024874;23;20033;-94
2022/05/01 08:13:07;;;;;;;8.60;6.53;;;;;;;;;;6024233;23;20026;-95
2022/05/01 08:15:43;;;;;;;9.25;5.38;;;;;;;;;;6026203;23;20022;-94
2022/05/01 08:21:08;;;;;;;9.13;6.82;;;;;;;;;;6045733;23;20027;-95
2022/05/01 08:23:41;;;;;;;9.50;5.68;;;;;;;;;;6022958;23;20098;-94
2022/05/01 08:26:11;;;;;;;9.63;7.07;;;;;;;;;;6023878;23;20025;-93
2022/05/01 08:28:57;;;;;;;6.80;5.95;;;;;;;;;;6036661;23;20014;-94
2022/05/01 08:31:24;;;;;;;10.10;5.97;;;;;;;;;;6074609;23;20474;-94
2022/05/01 08:33:59;;;;;;;12.13;6.07;;;;;;;;;;6149402;23;20020;-95
2022/05/01 12:04:52;;;;;;;5.43;4.55;;;;;;;;;;6221107;23;20025;-92
2022/05/01 12:07:21;;;;;;;6.00;4.38;;;;;;;;;;6198034;23;20023;-93
2022/05/01 12:09:55;;;;;;;5.68;4.75;;;;;;;;;;6196567;23;20021;-92
2022/05/01 12:12:27;;;;;;;10.50;5.18;;;;;;;;;;6193278;23;20016;-94
2022/05/01 12:14:58;;;;;;;5.57;4.38;;;;;;;;;;6198482;23;20016;-92
2022/05/01 12:17:29;;;;;;;6.80;4.40;;;;;;;;;;6193937;23;20023;-92
2022/05/01 12:20:08;;;;;;;6.55;4.57;;;;;;;;;;6193306;23;20131;-93
2022/05/01 12:22:40;;;;;;;6.63;5.05;;;;;;;;;;6194288;23;20012;-92
2022/05/01 12:25:18;;;;;;;4.95;4.40;;;;;;;;;;6196026;23;20095;-92
2022/05/01 12:30:52;;;;;;;4.90;4.45;;;;;;;;;;6105615;23;20064;-90
2022/05/01 12:33:50;;;;;;;;;;;;;;;;;;;;;
2022/05/01 12:39:48;;;;;;;;;;;;;;;;;;;;;
2022/05/01 12:45:14;;;;;;;5.70;4.68;;;;;;;;;;5966469;24;20027;-93
2022/05/01 12:48:19;;;;;;;4.70;4.18;;;;;;;;;;5942537;24;20023;-91
2022/05/01 12:50:54;;;;;;;8.13;3.85;;;;;;;;;;5931079;24;20020;-92
2022/05/01 12:53:20;;;;;;;4.47;4.07;;;;;;;;;;5914638;24;20017;-93
2022/05/01 12:55:48;;;;;;;5.78;4.40;;;;;;;;;;5915306;24;20029;-92
2022/05/01 12:58:35;;;;;;;6.57;3.90;;;14.70;99.90;;;;;;5912727;24;20056;-91
2022/05/01 13:01:23;;;;;;;4.18;3.78;;;14.70;99.90;;;;;;5906558;24;20451;-92
2022/05/01 13:04:00;;;;;;;6.57;3.75;;;14.80;99.90;;;;;;5938442;24;20029;-93
2022/05/01 13:06:56;;;;;;;;;;;;;;;;;;;;;
2022/05/01 13:09:28;;;;;;;4.53;3.75;;;;;;;;;;6024414;23;20020;-93
2022/05/01 13:12:14;;;;;;;4.40;4.00;;;;;;;;;;5999619;23;20023;-94
2022/05/01 13:15:04;;;;;;;6.43;3.90;;;;;;;;;;5997617;23;20029;-93
2022/05/01 13:17:43;;;;;;;4.53;4.05;;;;;;;;;;5997307;23;20030;-93
2022/05/01 13:20:12;;;;;;;4.97;4.15;;;;;;;;;;6146581;23;20027;-93
2022/05/01 13:22:38;;;;;;;4.57;3.97;;;;;;;;;;6149244;23;20017;-92
2022/05/01 13:25:12;;;;;;;4.72;4.20;;;;;;;;;;6147799;23;20024;-92
2022/05/01 13:27:38;;;;;;;10.20;4.20;;;;;;;;;;6150031;23;20017;-91
2022/05/01 13:30:08;;;;;;;4.15;3.78;;;;;;;;;;6174436;23;20021;-93
2022/05/01 13:32:39;;;;;;;3.97;3.58;;;;;;;;;;6150461;23;20024;-94
2022/05/01 13:35:21;;;;;;;;;;;;;;;;;;;;;
2022/05/01 13:37:48;;;;;;;4.97;3.83;;;;;;;;;;6173084;23;20023;-93
2022/05/01 13:45:47;;;;;;;6.65;4.22;;;;;;;;;;6171990;23;20021;-92
2022/05/01 13:48:13;;;;;;;5.35;3.65;;;;;;;;;;6143367;23;20357;-93
2022/05/01 13:50:42;;;;;;;3.67;3.38;;;;;;;;;;6140896;23;20013;-93
2022/05/01 13:53:13;;;;;;;3.83;3.50;;;;;;;;;;6141530;23;20017;-92
2022/05/01 13:55:40;;;;;;;3.40;2.97;;;;;;;;;;6142662;23;20044;-92
2022/05/01 14:13:09;;;;;;;;;;;;;;;;;;;;;
2022/05/01 14:15:37;;;;;;;4.13;3.72;;;;;;;;;;6106575;23;20081;-93
2022/05/01 14:18:34;;;;;;;5.00;4.13;;;17.20;99.90;;;;;;6133163;23;20014;-92
2022/05/01 14:21:51;;;;;;;5.40;4.43;;;17.00;99.90;;;;;;6106294;23;20022;-92
2022/05/01 14:24:58;;;;;;;8.98;4.10;;;16.90;99.90;;;;;;6122828;23;20079;-94
2022/05/01 14:27:29;;;;;;;5.57;4.43;;;;;;;;;;6107667;23;20336;-94
2022/05/01 14:29:57;;;;;;;5.88;4.78;;;;;;;;;;6108828;23;20514;-92
2022/05/01 14:32:46;;;;;;;6.32;4.18;;;16.50;99.90;;;;;;6055661;23;20018;-93
2022/05/01 14:35:34;;;;;;;5.90;3.90;;;16.90;99.90;;;;;;6018014;23;20104;-93
2022/05/01 14:38:54;;;;;;;;;;;;;;;;;;;;;
2022/05/01 14:41:33;;;;;;;5.38;4.30;;;16.80;99.90;;;;;;5987409;23;20459;-92
2022/05/01 14:44:10;;;;;;;11.48;3.90;;;16.90;99.90;;;;;;5941601;24;20024;-93
2022/05/01 14:50:03;;;;;;;4.93;3.90;;;;;;;;;;5932671;24;20063;-93
2022/05/01 15:07:54;;;;;;;3.75;3.40;;;;;;;;;;6241701;22;20487;-92
2022/05/01 15:11:02;;;;;;;4.38;3.50;;;16.90;99.90;;;;;;6227868;23;20051;-90
2022/05/01 15:16:31;;;;;;;3.30;3.08;;;16.80;99.90;;;;;;6258645;22;20024;-95
2022/05/01 15:19:55;;;;;;;3.85;3.53;;;17.00;99.90;;;;;;6231032;23;20027;-93
2022/05/01 15:22:50;;;;;;;4.10;3.53;;;17.00;99.90;;;;;;6229808;22;20031;-94
2022/05/01 15:28:55;;;;;;;5.05;3.22;;;17.10;99.90;;;;;;6222570;23;20028;-94
2022/05/01 15:31:40;;;;;;;4.45;3.58;;;17.10;99.90;;;;;;6196842;23;20029;-95
2022/05/01 15:34:44;;;;;;;7.88;4.07;;;17.10;99.90;;;;;;6195584;23;20017;-95
2022/05/01 15:37:53;;;;;;;;;;;;;;;;;;;;;
2022/05/01 15:44:05;;;;;;;9.15;3.70;;;17.30;99.90;;;;;;6114067;22;20030;-96
2022/05/01 15:46:37;;;;;;;4.53;3.60;;;17.00;99.90;;;;;;6215633;23;20094;-95
2022/05/01 15:54:55;;;;;;;3.55;3.35;;;16.70;99.90;;;;;;6222878;23;20024;-94
2022/05/01 15:57:24;;;;;;;4.07;3.47;;;17.10;99.90;;;;;;6197040;23;20016;-95
2022/05/01 15:59:53;;;;;;;4.32;3.92;;;16.80;99.90;;;;;;6200721;23;20012;-96
2022/05/01 16:02:22;;;;;;;5.15;4.30;;;16.60;99.90;;;;;;6200502;23;20024;-95
2022/05/01 16:04:57;;;;;;;4.32;3.80;;;16.60;99.90;;;;;;6199910;23;20016;-94
2022/05/01 16:07:26;;;;;;;3.67;3.38;;;;;;;;;;6200007;23;20453;-96
2022/05/01 16:10:00;;;;;;;4.38;3.30;;;;;;;;;;6200176;23;20067;-96
2022/05/01 16:12:32;;;;;;;3.85;3.40;;;;;;;;;;6201062;23;20020;-96
2022/05/01 16:15:12;;;;;;;4.55;3.22;;;16.60;99.90;;;;;;6201253;23;20074;-95
2022/05/01 16:17:56;;;;;;;4.38;3.50;;;16.30;99.90;;;;;;6202173;23;20012;-93
2022/05/01 16:20:23;;;;;;;3.72;3.35;;;;;;;;;;6201956;23;20016;-93
2022/05/01 16:22:56;;;;;;;4.15;3.47;;;16.40;99.90;;;;;;6200611;23;20095;-94
2022/05/01 16:25:23;;;;;;;;;;;16.40;99.90;;;;;;6200900;23;20012;-93
2022/05/01 16:27:52;;;;;;;5.35;4.32;;;;;;;;;;6213634;22;20002;-94
2022/05/01 16:30:20;;;;;;;4.75;3.90;;;16.40;99.90;;;;;;6230304;22;20077;-93
2022/05/01 16:33:01;;;;;;;5.22;3.40;;;;;;;;;;6230615;22;20039;-93
2022/05/01 16:35:38;;;;;;;5.13;4.32;;;;;;;;;;6230239;22;20094;-94
2022/05/01 16:38:09;;;;;;;3.65;2.75;;;16.40;99.90;;;;;;6230802;22;20012;-93
2022/05/01 16:40:41;;;;;;;3.75;3.38;;;;;;;;;;6232788;22;20046;-94
2022/05/01 16:43:10;;;;;;;3.35;3.05;;;;;;;;;;6231292;22;20012;-94
2022/05/01 16:45:40;;;;;;;7.43;3.67;;;;;;;;;;6232574;22;20091;-94
2022/05/01 16:48:06;;;;;;;4.15;3.47;;;;;;;;;;6230475;22;20094;-92
2022/05/01 16:50:36;;;;;;;5.95;3.15;;;;;;;;;;6256553;22;20067;-93
2022/05/01 16:53:02;;;;;;;3.80;3.17;;;;;;;;;;6229447;22;20012;-93
2022/05/01 16:55:33;;;;;;;5.90;4.25;;;16.00;99.90;;;;;;6230846;22;20047;-93
2022/05/01 16:58:01;;;;;;;5.70;4.18;;;16.10;99.90;;;;;;6230470;22;20012;-94
2022/05/01 17:00:29;;;;;;;5.63;3.90;;;16.10;99.90;;;;;;6255277;22;20510;-94
2022/05/01 17:03:12;;;;;;;4.65;3.00;;;;;;;;;;6228635;22;20099;-93
2022/05/01 17:05:45;;;;;;;4.50;3.67;;;;;;;;;;6229596;22;20026;-93
2022/05/01 17:08:37;;;;;;;3.88;3.17;;;;;;;;;;6229903;22;20015;-93
2022/05/01 17:11:11;;;;;;;5.88;3.47;;;;;;;;;;6232128;22;20015;-94
2022/05/01 17:13:54;;;;;;;3.97;3.67;;;;;;;;;;6230899;22;20014;-93
2022/05/01 17:16:34;;;;;;;4.63;3.97;;;;;;;;;;6231260;22;20012;-95
2022/05/01 17:19:03;;;;;;;4.45;3.83;;;;;;;;;;6230961;22;20019;-95
2022/05/01 17:21:30;;;;;;;6.30;3.63;;;;;;;;;;6230937;22;20352;-95
2022/05/01 17:24:12;;;;;;;3.67;3.38;;;15.70;99.90;;;;;;6230772;22;20016;-94
2022/05/01 17:26:45;;;;;;;4.20;3.80;;;15.50;99.90;;;;;;6229614;22;20020;-94
2022/05/01 17:29:20;;;;;;;4.93;3.22;;;15.50;99.90;;;;;;6229570;22;20016;-95
2022/05/01 17:31:46;;;;;;;5.18;3.67;;;;;;;;;;6229050;22;20015;-93
2022/05/01 17:34:22;;;;;;;5.22;4.15;;;;;;;;;;6253919;22;20012;-93
2022/05/01 17:36:50;;;;;;;7.82;3.90;;;;;;;;;;6229813;22;20019;-92
2022/05/01 17:39:17;;;;;;;8.25;3.92;;;;;;;;;;6229838;22;20077;-93
2022/05/01 17:41:43;;;;;;;4.20;3.38;;;;;;;;;;6228524;22;20064;-93
2022/05/01 17:44:11;;;;;;;4.75;3.75;;;15.30;99.90;;;;;;6231271;22;20101;-93
2022/05/01 17:46:49;;;;;;;4.28;3.08;;;15.30;99.90;;;;;;6259846;22;20454;-94
2022/05/01 17:49:21;;;;;;;6.05;3.50;;;15.30;99.90;;;;;;6259814;22;20015;-93
2022/05/01 17:51:56;;;;;;;4.75;3.70;;;15.30;99.90;;;;;;6260525;22;20015;-95
2022/05/01 17:54:25;;;;;;;4.22;3.83;;;;;;;;;;6260181;22;20094;-93
2022/05/01 17:56:51;;;;;;;3.88;3.20;;;;;;;;;;6259191;22;20019;-94
2022/05/01 17:59:18;;;;;;;6.15;3.47;;;;;;;;;;6261115;22;20436;-93
2022/05/01 18:02:05;;;;;;;4.78;3.55;;;14.60;99.90;;;;;;6261405;22;20053;-93
2022/05/01 18:10:27;;;;;;;3.30;3.00;;;;;;;;;;6285105;22;20019;-92
2022/05/01 18:13:08;;;;;;;6.55;3.90;;;;;;;;;;6259510;22;20022;-93
2022/05/01 18:40:27;;;;;;;;;;;;;;;;;;;;;
2022/05/01 18:59:07;;;;;;;4.70;3.97;;;;;;;;;;6163620;22;20060;-92
2022/05/01 19:01:54;;;;;;;5.00;4.30;;;;;;;;;;6138383;23;20022;-92
2022/05/01 19:05:04;;;;;;;8.02;4.15;;;;;;;;;;6072001;23;20061;-92
2022/05/01 19:11:43;;;;;;;9.20;3.97;;;11.10;99.90;;;;;;5985796;24;20035;-92
2022/05/01 19:15:02;;;;;;;;;;;;;;;;;;;;;
2022/05/01 19:26:56;;;;;;;;;;;;;;;;;;;;;
2022/05/01 19:29:51;;;;;;;6.07;5.40;;;;;;;;;;6129096;23;20105;-93
2022/05/01 19:32:50;;;;;;;;;;;;;;;;;;;;;
2022/05/01 19:36:13;;;;;;;6.70;5.72;;;;;;;;;;6133429;23;20474;-92
2022/05/01 19:39:17;;;;;;;5.13;4.68;;;;;;;;;;6107722;23;20022;-93
2022/05/01 19:54:27;;;;;;;4.97;4.47;;;;;;;;;;6258362;22;20136;-91
2022/05/01 19:57:14;;;;;;;7.40;5.20;;;;;;;;;;6236481;22;20117;-92
2022/05/01 20:02:58;;;;;;;6.97;5.67;;;;;;;;;;6194988;23;20326;-91
2022/05/01 20:05:26;;;;;;;6.00;5.40;;;;;;;;;;6146893;23;20017;-92
2022/05/01 20:08:14;;;;;;;5.97;5.28;;;;;;;;;;6118469;23;20025;-92
2022/05/01 20:10:41;;;;;;;6.55;4.95;;;;;;;;;;6142095;23;20052;-92
2022/05/01 20:13:08;;;;;;;6.55;5.10;;;;;;;;;;6167254;23;20044;-92
2022/05/01 20:15:48;;;;;;;5.60;4.93;;;;;;;;;;6167964;23;20017;-91
2022/05/01 20:18:21;;;;;;;13.48;5.38;;;;;;;;;;6168094;23;20048;-93
2022/05/01 20:21:05;;;;;;;8.20;5.18;;;;;;;;;;6169612;23;20032;-93
2022/05/01 20:23:33;;;;;;;;;;;8.90;99.90;;;;;;6171460;23;20017;-92
2022/05/01 20:26:05;;;;;;;9.77;4.93;;;;;;;;;;6137583;23;19917;-93
2022/05/01 20:28:50;;;;;;;7.00;5.03;;;;;;;;;;6137587;23;20021;-93
2022/05/01 20:31:26;;;;;;;5.43;4.93;;;;;;;;;;6144083;23;20441;-94
2022/05/01 20:33:52;;;;;;;5.43;4.93;;;;;;;;;;6171206;23;20100;-93
2022/05/01 20:36:41;;;;;;;9.32;5.03;;;;;;;;;;6170096;23;20024;-91
2022/05/01 20:39:19;;;;;;;9.43;6.47;;;;;;;;;;6172298;23;20024;-92
2022/05/01 20:41:53;;;;;;;7.93;6.00;;;;;;;;;;6171646;23;20017;-93
2022/05/01 20:44:25;;;;;;;6.60;5.13;;;;;;;;;;6172829;23;20035;-92
2022/05/01 20:46:56;;;;;;;5.57;4.95;;;;;;;;;;6195057;23;20020;-92
2022/05/01 20:49:28;;;;;;;7.78;6.10;;;;;;;;;;6168781;23;20461;-92
2022/05/01 20:51:57;;;;;;;9.20;5.88;;;;;;;;;;6168725;23;20099;-92
2022/05/01 20:54:35;;;;;;;7.35;5.30;;;;;;;;;;6169875;23;20024;-92
2022/05/01 20:57:04;;;;;;;6.03;5.07;;;;;;;;;;6170975;23;20049;-92
2022/05/01 20:59:30;;;;;;;5.78;5.22;;;;;;;;;;6196988;23;20020;-91
2022/05/01 21:01:58;;;;;;;8.90;5.80;;;;;;;;;;6172977;23;20009;-93
2022/05/01 21:04:25;;;;;;;6.47;5.20;;;;;;;;;;6172409;23;20454;-94
2022/05/01 21:06:54;;;;;;;7.38;5.50;;;;;;;;;;6173149;23;20012;-93
2022/05/01 21:09:22;;;;;;;9.20;5.90;;;;;;;;;;6171840;23;20048;-93
2022/05/01 21:11:52;;;;;;;8.00;5.75;;;;;;;;;;6172525;23;20028;-92
2022/05/01 21:14:18;;;;;;;6.53;5.80;;;;;;;;;;6173047;23;20104;-92
2022/05/01 21:16:44;;;;;;;10.18;5.72;;;;;;;;;;6196881;23;20095;-92
2022/05/01 21:19:10;;;;;;;7.07;5.70;;;;;;;;;;6169293;23;20008;-92
2022/05/01 21:21:37;;;;;;;7.03;5.63;;;;;;;;;;6170125;23;20143;-90
2022/05/01 21:24:04;;;;;;;7.03;6.20;;;;;;;;;;6168409;23;20008;-91
2022/05/01 21:26:30;;;;;;;6.85;6.15;;;;;;;;;;6169439;23;20079;-90
2022/05/01 21:34:26;;;;;;;7.45;6.35;;;;;;;;;;6194484;23;20091;-89
2022/05/01 21:36:52;;;;;;;9.35;6.25;;;;;;;;;;6193148;23;20032;-90
2022/05/01 21:39:18;;;;;;;8.43;6.57;;;;;;;;;;6170252;23;20051;-89
2022/05/01 21:41:44;;;;;;;9.10;6.80;;;;;;;;;;6194069;23;20020;-89
2022/05/01 21:44:12;;;;;;;8.07;6.68;;;;;;;;;;6169570;23;20055;-90
2022/05/01 21:46:38;;;;;;;7.20;6.38;;;;;;;;;;6194903;23;20020;-90
2022/05/01 21:49:04;;;;;;;12.05;7.05;;;;;;;;;;6169112;23;20020;-90
2022/05/01 21:51:30;;;;;;;8.57;6.05;;;;;;;;;;6169554;23;20023;-90
2022/05/01 21:53:56;;;;;;;7.22;6.00;;;;;;;;;;6193835;23;20047;-90
2022/05/01 21:56:22;;;;;;;7.95;6.22;;;;;;;;;;6169582;23;20115;-91
2022/05/01 21:58:48;;;;;;;8.52;6.55;;;;;;;;;;6168525;23;20481;-90
2022/05/01 22:01:14;;;;;;;8.25;7.00;;;;;;;;;;6169473;23;20027;-90
2022/05/01 22:03:42;;;;;;;13.15;6.22;;;;;;;;;;6169344;23;20017;-90
2022/05/01 22:06:10;;;;;;;7.28;6.13;;;;;;;;;;6194071;23;20039;-89
2022/05/01 22:08:36;;;;;;;7.35;6.60;;;;;;;;;;6169689;23;20051;-89
2022/05/01 22:11:03;;;;;;;6.63;5.97;;;;;;;;;;6193835;23;20044;-90
2022/05/01 22:13:29;;;;;;;7.60;6.15;;;;;;;;;;6171029;23;20016;-90
2022/05/01 22:15:55;;;;;;;8.32;6.35;;;;;;;;;;6169748;23;20507;-90
2022/05/01 22:18:21;;;;;;;9.73;5.80;;;;;;;;;;6171826;23;20016;-91
2022/05/01 22:20:47;;;;;;;7.90;7.10;;;;;;;;;;6170600;23;20020;-90
2022/05/01 22:23:13;;;;;;;8.35;6.45;;;;;;;;;;6170924;23;20009;-92
2022/05/01 22:25:39;;;;;;;11.07;5.68;;;;;;;;;;6168404;23;20023;-92
2022/05/01 22:28:05;;;;;;;8.10;6.60;;;;;;;;;;6169920;23;20012;-90
2022/05/01 22:30:31;;;;;;;7.55;6.20;;;;;;;;;;6169049;23;20016;-90
2022/05/01 22:32:58;;;;;;;8.90;6.07;;;;;;;;;;6169490;23;20104;-89
2022/05/01 22:38:08;;;;;;;8.85;6.53;;;;;;;;;;6193044;23;20056;-90
2022/05/01 22:40:36;;;;;;;24.30;6.28;;;;;;;;;;6169255;23;20020;-91
2022/05/01 22:43:05;;;;;;;9.13;6.18;;;;;;;;;;6170627;23;20024;-90
2022/05/01 22:45:31;;;;;;;14.00;7.30;;;;;;;;;;6169244;23;20095;-93
2022/05/01 22:47:57;;;;;;;8.63;6.60;;;;;;;;;;6193648;23;20013;-91
2022/05/01 22:50:24;;;;;;;11.95;7.10;;;;;;;;;;6170844;23;20050;-92
2022/05/01 22:52:50;;;;;;;9.77;6.93;;;;;;;;;;6170386;23;20047;-90
2022/05/01 22:55:16;;;;;;;11.27;6.25;;;;;;;;;;6193550;23;20020;-90
2022/05/01 22:57:43;;;;;;;10.30;6.53;;;;;;;;;;6168855;23;20016;-90
2022/05/01 23:00:13;;;;;;;9.55;7.13;;;;;;;;;;6171300;23;20024;-92
2022/05/01 23:02:41;;;;;;;8.07;6.45;;;;;;;;;;6168522;23;20017;-90
2022/05/01 23:05:07;;;;;;;7.47;6.38;;;;;;;;;;6168757;23;20401;-90
2022/05/01 23:07:40;;;;;;;9.40;6.60;;;;;;;;;;6193858;23;20093;-91
2022/05/01 23:10:07;;;;;;;10.45;6.85;;;;;;;;;;6169225;23;20020;-91
2022/05/01 23:12:33;;;;;;;10.32;6.35;;;;;;;;;;6169509;23;20019;-91
2022/05/01 23:15:03;;;;;;;7.57;6.30;;;;;;;;;;6170237;23;20354;-90